Time;durP1;ratioP1;P1;durP2;ratioP2;P2;SDS_P1;SDS_P2;PMS_P1;PMS_P2;Temp;Humidity;BMP_temperature;BMP_pressure;BME280_temperature;BME280_humidity;BME280_pressure;Samples;Min_cycle;Max_cycle;Signal;HPM_P1;HPM_P2
2020/12/17 00:01:18;;;;;;;77.2;59.6;;;;;;;2.49;83.98535;99561.91;;;;
2020/12/17 00:11:16;;;;;;;62.5;48.2;;;;;;;2.36;84.41211;99556.01;;;;
2020/12/17 00:21:14;;;;;;;64.7;51.3;;;;;;;2.39;84.25195;99558.2;;;;
2020/12/17 00:31:12;;;;;;;80.4;62;;;;;;;2.37;84.38086;99558.42;;;;
2020/12/17 00:41:10;;;;;;;85.5;61.3;;;;;;;2.4;84.46484;99541.99;;;;
2020/12/17 00:51:11;;;;;;;93.3;67.2;;;;;;;2.43;84.4707;99551.39;;;;
2020/12/17 01:01:10;;;;;;;77.2;60.3;;;;;;;2.44;84.24023;99550.33;;;;
2020/12/17 01:11:05;;;;;;;102.4;85.9;;;;;;;2.34;84.33105;99553.56;;;;
2020/12/17 01:21:03;;;;;;;117;89.1;;;;;;;2.36;84.41211;99556.79;;;;
2020/12/17 01:31:01;;;;;;;110.4;80.5;;;;;;;2.36;84.33496;99548.81;;;;
2020/12/17 01:40:59;;;;;;;111.4;84.5;;;;;;;2.35;84.12305;99543.73;;;;
2020/12/17 01:50:57;;;;;;;73.7;53.6;;;;;;;2.22;84.76074;99539.43;;;;
2020/12/17 02:00:55;;;;;;;63.6;44.4;;;;;;;2.22;84.30664;99538.65;;;;
2020/12/17 02:10:56;;;;;;;55.1;45.7;;;;;;;2.3;83.70605;99536.44;;;;
2020/12/17 02:20:53;;;;;;;54;42.3;;;;;;;2.29;83.16113;99542.8;;;;
2020/12/17 02:30:49;;;;;;;79.6;58.4;;;;;;;2.14;82.84473;99525.68;;;;
2020/12/17 02:40:48;;;;;;;63.6;51.5;;;;;;;1.93;83.33691;99530.51;;;;
2020/12/17 02:50:45;;;;;;;70.3;52;;;;;;;1.92;83.0459;99523.56;;;;
2020/12/17 03:00:43;;;;;;;63.5;48.6;;;;;;;1.96;82.83398;99530.05;;;;
2020/12/17 03:20:39;;;;;;;72.8;56.2;;;;;;;1.78;83.30566;99513.36;;;;
2020/12/17 03:30:37;;;;;;;69.9;52.6;;;;;;;1.7;83.33594;99517.14;;;;
2020/12/17 03:40:35;;;;;;;66.3;52.1;;;;;;;1.62;83.30762;99511.36;;;;
2020/12/17 03:50:33;;;;;;;59.8;49;;;;;;;1.53;83.01367;99497.58;;;;
2020/12/17 04:00:34;;;;;;;60.9;46;;;;;;;1.36;83.03613;99509.88;;;;
2020/12/17 04:10:29;;;;;;;77;54.8;;;;;;;1.19;83.58594;99490.3;;;;
2020/12/17 04:20:27;;;;;;;56.9;45.1;;;;;;;1.07;83.16602;99486.8;;;;
2020/12/17 04:30:25;;;;;;;60.9;48.1;;;;;;;0.84;84.50977;99480.33;;;;
2020/12/17 04:40:25;;;;;;;64.4;50.7;;;;;;;0.77;85.14453;99492.86;;;;
2020/12/17 04:50:20;;;;;;;67.2;45.1;;;;;;;0.72;85.01465;99500.69;;;;
2020/12/17 05:00:18;;;;;;;71.4;51.3;;;;;;;0.67;84.33301;99511.13;;;;
2020/12/17 05:10:16;;;;;;;74;54;;;;;;;0.58;84.41504;99515.13;;;;
2020/12/17 05:20:14;;;;;;;82.6;54.7;;;;;;;0.49;84.31055;99527.84;;;;
2020/12/17 05:30:12;;;;;;;80;59.5;;;;;;;0.4;85.0498;99534.47;;;;
2020/12/17 05:40:10;;;;;;;70.9;54.6;;;;;;;0.29;86.19141;99542.31;;;;
2020/12/17 05:50:07;;;;;;;83.7;57;;;;;;;0.21;85.88965;99539.95;;;;
2020/12/17 06:00:05;;;;;;;71.3;56.4;;;;;;;-0.11;86.64941;99553.25;;;;
2020/12/17 06:10:03;;;;;;;62.1;45.6;;;;;;;-0.22;85.63867;99550.47;;;;
2020/12/17 06:20:00;;;;;;;85.6;57.5;;;;;;;-0.51;87.86133;99551.86;;;;
2020/12/17 06:30:02;;;;;;;74.3;54;;;;;;;-0.62;88.66992;99560.46;;;;
2020/12/17 06:39:56;;;;;;;101.7;68.8;;;;;;;-0.59;89.58789;99566.15;;;;
2020/12/17 06:49:53;;;;;;;92.2;68.7;;;;;;;-0.66;89.96582;99567.23;;;;
2020/12/17 07:00:09;;;;;;;86.3;64.4;;;;;;;-0.9;90.16797;99576.66;;;;
2020/12/17 07:09:53;;;;;;;84.4;60.5;;;;;;;-0.92;89.92188;99583.2;;;;
2020/12/17 07:19:48;;;;;;;72.4;53;;;;;;;-0.82;89.80176;99597.61;;;;
2020/12/17 07:29:44;;;;;;;77.9;60.1;;;;;;;-0.89;88.69043;99610.05;;;;
2020/12/17 07:39:41;;;;;;;79.9;53.5;;;;;;;-0.86;87.98535;99622.05;;;;
2020/12/17 07:49:39;;;;;;;70.8;62.3;;;;;;;-1.05;88.74512;99615.8;;;;
2020/12/17 07:59:36;;;;;;;81.6;61.9;;;;;;;-1.02;88.07422;99613.56;;;;
2020/12/17 08:09:34;;;;;;;65.7;53.3;;;;;;;-1.08;87.39355;99606.42;;;;
2020/12/17 08:19:31;;;;;;;81;57.3;;;;;;;-1.07;87.33203;99608.06;;;;
2020/12/17 08:29:29;;;;;;;87.8;73.8;;;;;;;-1.05;87.78418;99616.63;;;;
2020/12/17 08:39:26;;;;;;;89.6;71.1;;;;;;;-0.96;88.13086;99619.84;;;;
2020/12/17 08:49:24;;;;;;;99.8;76.9;;;;;;;-0.74;88.21875;99623.03;;;;
2020/12/17 08:59:23;;;;;;;80.4;61.8;;;;;;;-0.51;89.1543;99620.7;;;;
2020/12/17 09:09:24;;;;;;;82.8;63.3;;;;;;;-0.05;89.23828;99620.45;;;;
2020/12/17 09:19:17;;;;;;;76.8;67.4;;;;;;;0.28;88.73633;99612.27;;;;
2020/12/17 09:29:16;;;;;;;73.4;57;;;;;;;0.68;87.44727;99608.27;;;;
2020/12/17 09:39:12;;;;;;;73.8;51.1;;;;;;;0.72;86.01563;99609.45;;;;
2020/12/17 09:49:10;;;;;;;74;56;;;;;;;0.9;85.21582;99604.15;;;;
2020/12/17 09:59:08;;;;;;;81.9;57.3;;;;;;;0.64;85.97754;99601.77;;;;
2020/12/17 10:09:08;;;;;;;61.7;55.1;;;;;;;1.12;85.8418;99595.75;;;;
2020/12/17 10:19:03;;;;;;;80.6;66.4;;;;;;;1.28;84.71777;99600.48;;;;
2020/12/17 10:29:01;;;;;;;83.9;63.8;;;;;;;1.26;84.68066;99589.27;;;;
2020/12/17 10:38:59;;;;;;;85.9;62.4;;;;;;;1.44;83.42676;99589.25;;;;
2020/12/17 10:48:57;;;;;;;93;64.5;;;;;;;1.51;84.37988;99590.8;;;;
2020/12/17 10:58:55;;;;;;;88.5;69.3;;;;;;;1.55;84.13086;99596.47;;;;
2020/12/17 11:08:55;;;;;;;90.7;78.3;;;;;;;1.57;84.25781;99589.07;;;;
2020/12/17 11:18:52;;;;;;;79.8;63.2;;;;;;;1.74;83.88281;99590.06;;;;
2020/12/17 11:28:49;;;;;;;96.3;72.7;;;;;;;1.63;84.48926;99598.83;;;;
2020/12/17 11:38:47;;;;;;;101.2;73.4;;;;;;;1.57;84.70996;99589.07;;;;
2020/12/17 11:48:45;;;;;;;119.8;82.8;;;;;;;1.57;84.85156;99580.28;;;;
2020/12/17 11:58:43;;;;;;;111.8;77.4;;;;;;;1.79;84.72949;99581.42;;;;
2020/12/17 12:08:41;;;;;;;102.7;74.7;;;;;;;1.89;84.10059;99585.16;;;;
2020/12/17 12:18:41;;;;;;;81.4;62.6;;;;;;;1.88;83.46973;99588.84;;;;
2020/12/17 12:28:38;;;;;;;91.2;69.7;;;;;;;1.96;83.83887;99580.55;;;;
2020/12/17 12:38:34;;;;;;;89.8;68.7;;;;;;;2.06;83.67969;99576.52;;;;
2020/12/17 12:48:32;;;;;;;88.4;62.1;;;;;;;2.21;82.83691;99580.38;;;;
2020/12/17 12:58:30;;;;;;;98.2;66.9;;;;;;;2.36;83.03125;99582.61;;;;
2020/12/17 13:08:28;;;;;;;102.7;66.2;;;;;;;2.32;82.05078;99576.13;;;;
2020/12/17 13:18:26;;;;;;;89.9;64.5;;;;;;;2.16;82.95996;99577.59;;;;
2020/12/17 13:28:24;;;;;;;115.2;92.3;;;;;;;2.14;83.03223;99568.22;;;;
2020/12/17 13:38:22;;;;;;;97.9;75.1;;;;;;;2.1;82.54004;99572.38;;;;
2020/12/17 13:48:21;;;;;;;79.8;64.1;;;;;;;2.13;82.62207;99567.41;;;;
2020/12/17 13:58:18;;;;;;;92.6;65.3;;;;;;;2.19;83.24023;99573.65;;;;
2020/12/17 14:08:16;;;;;;;80.1;60.4;;;;;;;2.07;83.12012;99573.64;;;;
2020/12/17 14:18:14;;;;;;;154.4;107.6;;;;;;;2.12;82.66504;99572.97;;;;
2020/12/17 14:28:12;;;;;;;83.6;61.9;;;;;;;2.15;83.23438;99583.96;;;;
2020/12/17 14:38:10;;;;;;;76.9;55;;;;;;;2.17;82.29785;99583.72;;;;
2020/12/17 14:48:10;;;;;;;91;64.2;;;;;;;2.14;82.50195;99581.52;;;;
2020/12/17 14:58:06;;;;;;;79.6;63.1;;;;;;;2.1;83.10254;99583.82;;;;
2020/12/17 15:08:04;;;;;;;93.2;70;;;;;;;2.13;82.65527;99591.34;;;;
2020/12/17 15:18:02;;;;;;;87.6;69.3;;;;;;;2.15;82.98047;99583.96;;;;
2020/12/17 15:28:00;;;;;;;102;76.1;;;;;;;2.14;82.53711;99582.33;;;;
2020/12/17 15:37:58;;;;;;;87;69.7;;;;;;;2.07;82.9873;99573.64;;;;
2020/12/17 15:47:59;;;;;;;105.2;74.3;;;;;;;2.05;83.24707;99580.23;;;;
2020/12/17 15:57:54;;;;;;;135.1;103.4;;;;;;;2.06;83.06152;99576.52;;;;
2020/12/17 16:07:55;;;;;;;110.9;81.2;;;;;;;1.99;83.25879;99582.75;;;;
2020/12/17 16:17:53;;;;;;;108.2;77.5;;;;;;;1.94;83.22656;99574.64;;;;
2020/12/17 16:27:48;;;;;;;96.3;70;;;;;;;2.01;83.26367;99578.01;;;;
2020/12/17 16:37:46;;;;;;;106.9;73.7;;;;;;;1.89;83.34863;99573.71;;;;
2020/12/17 16:47:44;;;;;;;85.5;68.5;;;;;;;1.74;83.60742;99574.12;;;;
2020/12/17 16:57:42;;;;;;;134.7;107.5;;;;;;;1.68;83.83789;99569.72;;;;
2020/12/17 17:07:40;;;;;;;103.7;85.7;;;;;;;1.65;83.8877;99570.17;;;;
2020/12/17 17:17:38;;;;;;;125.1;96.9;;;;;;;1.66;83.3584;99568.33;;;;
2020/12/17 17:27:37;;;;;;;225.4;155.6;;;;;;;1.57;83.55078;99556.38;;;;
2020/12/17 17:37:34;;;;;;;104.3;73.3;;;;;;;1.55;83.20508;99577.88;;;;
2020/12/17 17:47:34;;;;;;;110.1;74.9;;;;;;;1.53;83.05664;99571.17;;;;
2020/12/17 17:57:31;;;;;;;83.9;64.1;;;;;;;1.44;83.45996;99581.28;;;;
2020/12/17 18:07:28;;;;;;;82.5;71.6;;;;;;;1.42;83.24512;99591.33;;;;
2020/12/17 18:17:25;;;;;;;87.5;67.8;;;;;;;1.41;83.38867;99585.2;;;;
2020/12/17 18:27:26;;;;;;;82.2;63.1;;;;;;;1.46;83.21191;99574.7;;;;
2020/12/17 18:37:21;;;;;;;92.2;66.1;;;;;;;1.22;82.83203;99574.8;;;;
2020/12/17 18:57:17;;;;;;;145.5;110;;;;;;;0.52;84.22656;99582.3;;;;
2020/12/17 19:07:18;;;;;;;148.3;98.2;;;;;;;0.27;85.20996;99570.89;;;;
2020/12/17 19:17:12;;;;;;;106.4;69.2;;;;;;;0.12;84.89453;99578.34;;;;
2020/12/17 19:27:14;;;;;;;93.1;67.2;;;;;;;-0.04;85.15918;99577.05;;;;
2020/12/17 19:37:08;;;;;;;91;65.2;;;;;;;0.05;85.37402;99588.18;;;;
2020/12/17 19:47:05;;;;;;;134;95.4;;;;;;;0.18;85.44531;99590.73;;;;
2020/12/17 19:57:03;;;;;;;112.6;86.4;;;;;;;0.11;86.20996;99593.43;;;;
2020/12/17 20:07:01;;;;;;;109.9;79;;;;;;;0.33;85.96973;99596.53;;;;
2020/12/17 20:16:59;;;;;;;144.9;101.6;;;;;;;0.42;86.06445;99611.13;;;;
2020/12/17 20:26:56;;;;;;;136.6;97;;;;;;;0.37;86.33984;99618.94;;;;
2020/12/17 20:36:54;;;;;;;126.2;93.1;;;;;;;0.45;86.23438;99600.12;;;;
2020/12/17 20:46:53;;;;;;;123.5;100.4;;;;;;;0.48;86.53906;99589.88;;;;
2020/12/17 20:56:50;;;;;;;124.5;91.2;;;;;;;0.52;86.82031;99606.17;;;;
2020/12/17 21:06:49;;;;;;;89.5;65;;;;;;;0.63;86.74316;99624.01;;;;
2020/12/17 21:16:45;;;;;;;128.3;90.4;;;;;;;0.78;86.04883;99631.63;;;;
2020/12/17 21:26:43;;;;;;;80.6;57.4;;;;;;;0.67;85.54297;99646.42;;;;
2020/12/17 21:36:41;;;;;;;61.7;51.2;;;;;;;0.71;85.2207;99650.27;;;;
2020/12/17 21:46:38;;;;;;;75.3;58.8;;;;;;;0.74;85.07324;99647.17;;;;
2020/12/17 21:56:36;;;;;;;77.3;55;;;;;;;0.76;84.85742;99646.97;;;;
2020/12/17 22:06:34;;;;;;;79.1;57.9;;;;;;;0.76;84.4834;99633.7;;;;
2020/12/17 22:16:32;;;;;;;75.9;53.5;;;;;;;0.67;84.6748;99638.46;;;;
2020/12/17 22:26:29;;;;;;;67.2;54.9;;;;;;;0.71;84.56055;99646.8;;;;
2020/12/17 22:36:27;;;;;;;52.1;46.5;;;;;;;0.78;84.37793;99648.38;;;;
2020/12/17 22:46:25;;;;;;;66.8;48.3;;;;;;;0.92;84.05273;99657.83;;;;
2020/12/17 22:56:24;;;;;;;64.4;51.5;;;;;;;1.03;83.40234;99658.95;;;;
2020/12/17 23:06:23;;;;;;;76.7;60;;;;;;;0.99;83.5166;99650.63;;;;
2020/12/17 23:16:18;;;;;;;57;50.1;;;;;;;0.93;83.83398;99661.3;;;;
2020/12/17 23:26:16;;;;;;;56.9;45.2;;;;;;;1.04;83.74707;99649.97;;;;
2020/12/17 23:36:14;;;;;;;67.8;46.4;;;;;;;1.07;83.34277;99656.67;;;;
2020/12/17 23:46:12;;;;;;;48.2;39.2;;;;;;;1.15;83.25;99665.14;;;;
2020/12/17 23:56:09;;;;;;;54.1;41.5;;;;;;;1.13;83.4873;99669.88;;;;
